createdAt,value
2022-08-01T00:00:24.606Z,1017.459351
2022-08-01T00:01:28.869Z,1017.410706
2022-08-01T00:02:32.794Z,1017.428467
2022-08-01T00:03:28.245Z,1017.387939
2022-08-01T00:04:29.299Z,1017.350952
2022-08-01T00:06:22.376Z,1017.444458
2022-08-01T00:07:18.922Z,1017.412292
2022-08-01T00:08:22.051Z,1017.403442
2022-08-01T00:09:23.809Z,1017.473633
2022-08-01T00:09:24.466Z,1017.473633
2022-08-01T00:10:18.240Z,1017.443176
2022-08-01T00:11:13.585Z,1017.330627
2022-08-01T00:12:13.931Z,1017.454468
2022-08-01T00:13:12.061Z,1017.391052
2022-08-01T00:14:10.623Z,1017.490662
2022-08-01T00:15:04.907Z,1017.493164
2022-08-01T00:16:16.743Z,1017.44574
2022-08-01T00:17:17.386Z,1017.502441
2022-08-01T00:18:16.291Z,1017.413391
2022-08-01T00:19:11.542Z,1017.47821
2022-08-01T00:21:15.202Z,1017.469238
2022-08-01T00:22:10.608Z,1017.526978
2022-08-01T00:23:13.048Z,1017.534912
2022-08-01T00:24:06.046Z,1017.503357
2022-08-01T00:24:14.334Z,1017.503357
2022-08-01T00:25:04.053Z,1017.492065
2022-08-01T00:26:59.243Z,1017.435181
2022-08-01T00:28:04.119Z,1017.520081
2022-08-01T00:28:57.308Z,1017.496521
2022-08-01T00:30:10.686Z,1017.453308
2022-08-01T00:30:10.687Z,1017.453308
2022-08-01T00:30:11.394Z,1017.453308
2022-08-01T00:32:28.507Z,1017.520386
2022-08-01T00:33:10.093Z,1017.474915
2022-08-01T00:34:14.008Z,1017.482727
2022-08-01T00:35:15.752Z,1017.540222
2022-08-01T00:37:19.709Z,1017.483582
2022-08-01T00:38:22.640Z,1017.49408
2022-08-01T00:39:23.679Z,1017.485107
2022-08-01T00:41:25.558Z,1017.479431
2022-08-01T00:42:22.156Z,1017.506592
2022-08-01T00:43:31.510Z,1017.490845
2022-08-01T00:44:31.172Z,1017.529358
2022-08-01T00:46:37.444Z,1017.477783
2022-08-01T00:47:34.218Z,1017.480835
2022-08-01T00:48:44.147Z,1017.50354
2022-08-01T00:49:48.217Z,1017.507385
2022-08-01T00:51:53.161Z,1017.464417
2022-08-01T00:52:51.774Z,1017.456055
2022-08-01T00:53:54.081Z,1017.459961
2022-08-01T00:54:50.549Z,1017.459961
2022-08-01T00:55:52.615Z,1017.440125
2022-08-01T00:56:53.249Z,1017.424377
2022-08-01T00:58:01.802Z,1017.401001
2022-08-01T00:58:02.622Z,1017.401001
2022-08-01T00:58:04.686Z,1017.401001
2022-08-01T00:58:52.745Z,1017.487061
2022-08-01T00:59:49.667Z,1017.425842
2022-08-01T01:00:54.883Z,1017.372131
2022-08-01T01:01:50.072Z,1017.364502
2022-08-01T01:02:56.459Z,1017.375916
2022-08-01T01:03:59.104Z,1017.421936
2022-08-01T01:04:57.264Z,1017.449158
2022-08-01T01:05:56.088Z,1017.387329
2022-08-01T01:06:59.581Z,1017.433289
2022-08-01T01:07:55.607Z,1017.410095
2022-08-01T01:09:43.620Z,1017.410522
2022-08-01T01:11:22.520Z,1017.401367
2022-08-01T01:12:23.886Z,1017.474976
2022-08-01T01:13:22.421Z,1017.416077
2022-08-01T01:14:22.364Z,1017.496643
2022-08-01T01:16:20.286Z,1017.437744
2022-08-01T01:17:17.498Z,1017.378967
2022-08-01T01:17:41.992Z,1017.378967
2022-08-01T01:17:50.286Z,1017.378967
2022-08-01T01:18:19.735Z,1017.394836
2022-08-01T01:19:17.729Z,1017.442322
2022-08-01T01:20:16.553Z,1017.466492
2022-08-01T01:22:19.139Z,1017.364502
2022-08-01T01:23:17.129Z,1017.383423
2022-08-01T01:24:18.137Z,1017.39856
2022-08-01T01:25:17.395Z,1017.366943
2022-08-01T01:26:19.649Z,1017.351196
2022-08-01T01:27:12.077Z,1017.378357
2022-08-01T01:28:15.020Z,1017.303589
2022-08-01T01:29:09.718Z,1017.295715
2022-08-01T01:30:13.896Z,1017.37384
2022-08-01T01:32:06.826Z,1017.365479
2022-08-01T01:33:07.134Z,1017.361572
2022-08-01T01:34:03.760Z,1017.443176
2022-08-01T01:35:07.618Z,1017.454407
2022-08-01T01:35:59.708Z,1017.505249
2022-08-01T01:37:01.193Z,1017.446289
2022-08-01T01:37:55.147Z,1017.516602
2022-08-01T01:38:55.582Z,1017.473511
2022-08-01T01:39:54.103Z,1017.492981
2022-08-01T01:41:50.775Z,1017.497559
2022-08-01T01:42:52.935Z,1017.559692
2022-08-01T01:43:47.609Z,1017.59491
2022-08-01T01:44:49.493Z,1017.606323
2022-08-01T01:45:44.534Z,1017.59491
2022-08-01T01:46:44.383Z,1017.582336
2022-08-01T01:48:21.656Z,1017.523926
2022-08-01T01:50:43.252Z,1017.46875
2022-08-01T01:51:29.188Z,1017.462402
2022-08-01T01:52:25.499Z,1017.442139
2022-08-01T01:53:27.345Z,1017.498901
2022-08-01T01:54:22.690Z,1017.478088
2022-08-01T01:55:28.512Z,1017.618774
2022-08-01T01:56:24.757Z,1017.551453
2022-08-01T01:57:23.694Z,1017.592468
2022-08-01T01:58:19.955Z,1017.551819
2022-08-01T01:59:18.848Z,1017.562134
2022-08-01T01:59:25.620Z,1017.562134
2022-08-01T02:00:18.970Z,1017.569092
2022-08-01T02:01:14.853Z,1017.554138
2022-08-01T02:02:11.963Z,1017.561035
2022-08-01T02:03:05.055Z,1017.529358
2022-08-01T02:04:03.440Z,1017.509521
2022-08-01T02:04:56.819Z,1017.586609
2022-08-01T02:06:51.464Z,1017.571472
2022-08-01T02:07:53.458Z,1017.493713
2022-08-01T02:07:59.753Z,1017.493713
2022-08-01T02:08:51.462Z,1017.539795
2022-08-01T02:09:46.001Z,1017.591125
2022-08-01T02:11:59.116Z,1017.423462
2022-08-01T02:12:07.248Z,1017.423462
2022-08-01T02:12:09.371Z,1017.423462
2022-08-01T02:12:45.220Z,1017.477783
2022-08-01T02:13:43.249Z,1017.571472
2022-08-01T02:14:39.413Z,1017.509521
2022-08-01T02:15:37.679Z,1017.473999
2022-08-01T02:16:31.185Z,1017.477783
2022-08-01T02:17:29.919Z,1017.468872
2022-08-01T02:18:27.941Z,1017.456055
2022-08-01T02:19:29.464Z,1017.544434
2022-08-01T02:20:20.897Z,1017.571655
2022-08-01T02:21:21.792Z,1017.482605
2022-08-01T02:22:15.662Z,1017.505249
2022-08-01T02:23:15.487Z,1017.473511
2022-08-01T02:24:16.323Z,1017.46582
2022-08-01T02:25:07.515Z,1017.504211
2022-08-01T02:26:10.646Z,1017.477051
2022-08-01T02:27:10.515Z,1017.504211
2022-08-01T02:28:09.807Z,1017.496277
2022-08-01T02:29:10.258Z,1017.44873
2022-08-01T02:30:11.597Z,1017.432922
2022-08-01T02:32:47.756Z,1017.462402
2022-08-01T02:33:33.107Z,1017.464417
2022-08-01T02:34:33.628Z,1017.41449
2022-08-01T02:35:33.113Z,1017.394836
2022-08-01T02:36:34.271Z,1017.437317
2022-08-01T02:37:37.759Z,1017.50592
2022-08-01T02:37:45.231Z,1017.50592
2022-08-01T02:38:37.590Z,1017.46283
2022-08-01T02:39:38.990Z,1017.41748
2022-08-01T02:40:36.183Z,1017.437317
2022-08-01T02:41:33.837Z,1017.412964
2022-08-01T02:42:30.979Z,1017.408508
2022-08-01T02:43:29.608Z,1017.372803
2022-08-01T02:44:27.616Z,1017.384216
2022-08-01T02:45:25.827Z,1017.426086
2022-08-01T02:47:29.605Z,1017.382935
2022-08-01T02:48:27.151Z,1017.348022
2022-08-01T02:49:26.685Z,1017.360291
2022-08-01T02:50:26.551Z,1017.37616
2022-08-01T02:51:27.134Z,1017.384216
2022-08-01T02:52:24.189Z,1017.348999
2022-08-01T02:53:21.700Z,1017.317261
2022-08-01T02:54:22.731Z,1017.359314
2022-08-01T02:55:20.604Z,1017.417053
2022-08-01T02:57:18.021Z,1017.323242
2022-08-01T02:58:15.108Z,1017.369507
2022-08-01T02:59:13.722Z,1017.299316
2022-08-01T03:00:10.654Z,1017.287964
2022-08-01T03:02:10.223Z,1017.303772
2022-08-01T03:03:11.693Z,1017.287964
2022-08-01T03:04:15.604Z,1017.419861
2022-08-01T03:05:16.747Z,1017.376831
2022-08-01T03:06:17.508Z,1017.314148
2022-08-01T03:07:16.102Z,1017.410828
2022-08-01T03:08:14.703Z,1017.438049
2022-08-01T03:09:11.612Z,1017.340637
2022-08-01T03:10:08.290Z,1017.406982
2022-08-01T03:11:09.504Z,1017.360962
2022-08-01T03:12:05.957Z,1017.399475
2022-08-01T03:13:10.117Z,1017.438049
2022-08-01T03:14:02.745Z,1017.402588
2022-08-01T03:15:05.096Z,1017.367859
2022-08-01T03:17:05.451Z,1017.402588
2022-08-01T03:18:08.097Z,1017.417664
2022-08-01T03:19:00.192Z,1017.447998
2022-08-01T03:20:00.628Z,1017.425232
2022-08-01T03:21:53.416Z,1017.444824
2022-08-01T03:22:52.985Z,1017.472046
2022-08-01T03:23:52.251Z,1017.49469
2022-08-01T03:23:55.281Z,1017.49469
2022-08-01T03:24:50.886Z,1017.526428
2022-08-01T03:25:45.410Z,1017.5
2022-08-01T03:26:49.650Z,1017.5271
2022-08-01T03:27:54.207Z,1017.39502
2022-08-01T03:28:52.405Z,1017.479553
2022-08-01T03:29:55.922Z,1017.506775
2022-08-01T03:31:52.797Z,1017.585327
2022-08-01T03:32:45.297Z,1017.607971
2022-08-01T03:33:41.847Z,1017.506775
2022-08-01T03:34:48.879Z,1017.635132
2022-08-01T03:36:12.802Z,1017.561157
2022-08-01T03:36:53.575Z,1017.542236
2022-08-01T03:38:14.723Z,1017.644226
2022-08-01T03:38:16.288Z,1017.644226
2022-08-01T03:38:17.219Z,1017.644226
2022-08-01T03:38:52.769Z,1017.555786
2022-08-01T03:39:57.217Z,1017.525757
2022-08-01T03:41:56.227Z,1017.580139
2022-08-01T03:41:57.055Z,1017.580139
2022-08-01T03:42:52.727Z,1017.618652
2022-08-01T03:43:51.112Z,1017.537292
2022-08-01T03:44:53.732Z,1017.552979
2022-08-01T03:46:50.945Z,1017.559814
2022-08-01T03:47:48.039Z,1017.574646
2022-08-01T03:48:50.468Z,1017.57843
2022-08-01T03:49:47.140Z,1017.589783
2022-08-01T03:51:42.449Z,1017.6828
2022-08-01T03:52:48.895Z,1017.685669
2022-08-01T03:53:44.440Z,1017.658447
2022-08-01T03:54:47.349Z,1017.61554
2022-08-01T03:55:41.505Z,1017.574036
2022-08-01T03:56:44.900Z,1017.6828
2022-08-01T03:57:38.248Z,1017.690247
2022-08-01T03:58:38.265Z,1017.65564
2022-08-01T03:59:37.928Z,1017.608643
2022-08-01T04:00:39.205Z,1017.574036
2022-08-01T04:01:41.001Z,1017.628418
2022-08-01T04:02:37.910Z,1017.62384
2022-08-01T04:03:41.861Z,1017.576904
2022-08-01T04:04:39.025Z,1017.558167
2022-08-01T04:05:39.292Z,1017.508301
2022-08-01T04:06:39.590Z,1017.492432
2022-08-01T04:07:33.953Z,1017.519653
2022-08-01T04:08:33.092Z,1017.581543
2022-08-01T04:09:31.141Z,1017.519653
2022-08-01T04:10:32.410Z,1017.519653
2022-08-01T04:11:27.922Z,1017.546814
2022-08-01T04:12:30.490Z,1017.538513
2022-08-01T04:13:26.712Z,1017.558167
2022-08-01T04:13:37.103Z,1017.558167
2022-08-01T04:13:38.311Z,1017.558167
2022-08-01T04:14:30.134Z,1017.542847
2022-08-01T04:15:25.516Z,1017.532593
2022-08-01T04:17:22.018Z,1017.618652
2022-08-01T04:18:26.210Z,1017.583679
2022-08-01T04:19:25.259Z,1017.598328
2022-08-01T04:20:25.209Z,1017.610229
2022-08-01T04:22:29.666Z,1017.694763
2022-08-01T04:23:30.373Z,1017.635803
2022-08-01T04:24:26.834Z,1017.581543
2022-08-01T04:25:26.043Z,1017.585327
2022-08-01T04:26:31.152Z,1017.65564
2022-08-01T04:27:50.052Z,1017.651062
2022-08-01T04:27:51.015Z,1017.651062
2022-08-01T04:27:51.047Z,1017.651062
2022-08-01T04:29:22.932Z,1017.634583
2022-08-01T04:30:24.645Z,1017.563171
2022-08-01T04:32:23.051Z,1017.649292
2022-08-01T04:33:19.409Z,1017.625366
2022-08-01T04:34:24.692Z,1017.694641
2022-08-01T04:36:07.709Z,1017.586853
2022-08-01T04:36:51.117Z,1017.693298
2022-08-01T04:37:51.220Z,1017.817871
2022-08-01T04:38:49.116Z,1017.731812
2022-08-01T04:39:50.379Z,1017.808899
2022-08-01T04:40:43.378Z,1017.758057
2022-08-01T04:41:42.949Z,1017.870117
2022-08-01T04:42:42.033Z,1017.900879
2022-08-01T04:43:44.426Z,1017.923523
2022-08-01T04:44:38.824Z,1017.934814
2022-08-01T04:45:37.620Z,1017.93811
2022-08-01T04:47:33.633Z,1017.906372
2022-08-01T04:48:30.625Z,1017.921326
2022-08-01T04:49:29.472Z,1017.978882
2022-08-01T04:50:32.573Z,1017.905457
2022-08-01T04:51:26.349Z,1017.909973
2022-08-01T04:52:30.428Z,1017.921326
2022-08-01T04:53:22.690Z,1018.018616
2022-08-01T04:54:22.158Z,1018.01062
2022-08-01T04:55:21.071Z,1018.00293
2022-08-01T04:56:19.220Z,1017.983398
2022-08-01T04:57:19.082Z,1017.9245
2022-08-01T04:58:17.942Z,1017.966614
2022-08-01T04:59:19.821Z,1017.93634
2022-08-01T05:00:14.494Z,1017.932617
2022-08-01T05:02:11.004Z,1017.956238
2022-08-01T05:03:12.017Z,1017.9245
2022-08-01T05:04:06.222Z,1017.94397
2022-08-01T05:05:09.341Z,1017.963501
2022-08-01T05:07:06.150Z,1017.870178
2022-08-01T05:07:58.771Z,1017.974976
2022-08-01T05:08:57.730Z,1017.893433
2022-08-01T05:09:53.546Z,1017.920654
2022-08-01T05:10:53.332Z,1017.94397
2022-08-01T05:11:52.445Z,1017.920654
2022-08-01T05:12:50.225Z,1017.963501
2022-08-01T05:13:54.760Z,1017.967651
2022-08-01T05:14:48.562Z,1017.991516
2022-08-01T05:16:46.621Z,1018.05365
2022-08-01T05:18:31.189Z,1017.997009
2022-08-01T05:19:10.883Z,1018.002747
2022-08-01T05:20:08.879Z,1018.058105
2022-08-01T05:22:03.664Z,1018.018066
2022-08-01T05:23:01.788Z,1018.025452
2022-08-01T05:23:58.938Z,1018.040039
2022-08-01T05:25:00.540Z,1018.128418
2022-08-01T05:26:02.041Z,1018.082153
2022-08-01T05:27:00.900Z,1018.096741
2022-08-01T05:27:56.103Z,1018.162415
2022-08-01T05:28:58.646Z,1018.111633
2022-08-01T05:29:57.570Z,1018.157959
2022-08-01T05:30:58.734Z,1018.165955
2022-08-01T05:32:00.541Z,1018.212219
2022-08-01T05:32:59.279Z,1018.208252
2022-08-01T05:34:02.276Z,1018.319946
2022-08-01T05:35:01.487Z,1018.24231
2022-08-01T05:37:00.632Z,1018.245239
2022-08-01T05:37:58.651Z,1018.197632
2022-08-01T05:38:54.961Z,1018.287476
2022-08-01T05:39:54.183Z,1018.271729
2022-08-01T05:41:52.059Z,1018.298889
2022-08-01T05:42:45.324Z,1018.36908
2022-08-01T05:43:45.428Z,1018.434753
2022-08-01T05:44:49.148Z,1018.326111
2022-08-01T05:46:47.283Z,1018.362427
2022-08-01T05:47:42.964Z,1018.389526
2022-08-01T05:48:40.237Z,1018.323853
2022-08-01T05:49:36.551Z,1018.315491
2022-08-01T05:50:34.789Z,1018.315491
2022-08-01T05:52:40.785Z,1018.383545
2022-08-01T05:53:02.335Z,1018.382263
2022-08-01T05:54:02.085Z,1018.361816
2022-08-01T05:55:05.141Z,1018.362549
2022-08-01T05:56:03.482Z,1018.35498
2022-08-01T05:57:06.239Z,1018.373108
2022-08-01T05:58:03.930Z,1018.407166
2022-08-01T05:59:03.322Z,1018.386719
2022-08-01T06:00:01.316Z,1018.382263
2022-08-01T06:01:01.366Z,1018.358582
2022-08-01T06:01:56.827Z,1018.346008
2022-08-01T06:02:54.520Z,1018.419678
2022-08-01T06:03:59.162Z,1018.314209
2022-08-01T06:04:52.233Z,1018.37207
2022-08-01T06:06:48.868Z,1018.368591
2022-08-01T06:07:48.511Z,1018.314209
2022-08-01T06:08:44.038Z,1018.434387
2022-08-01T06:09:44.070Z,1018.399231
2022-08-01T06:10:38.725Z,1018.399231
2022-08-01T06:11:42.599Z,1018.418457
2022-08-01T06:12:38.832Z,1018.383545
2022-08-01T06:13:48.274Z,1018.421936
2022-08-01T06:13:48.640Z,1018.421936
2022-08-01T06:13:48.878Z,1018.421936
2022-08-01T06:14:36.064Z,1018.391235
2022-08-01T06:15:34.664Z,1018.481873
2022-08-01T06:17:36.584Z,1018.373169
2022-08-01T06:18:35.924Z,1018.395813
2022-08-01T06:19:37.256Z,1018.418457
2022-08-01T06:20:36.602Z,1018.429871
2022-08-01T06:21:31.173Z,1018.457031
2022-08-01T06:22:33.783Z,1018.378845
2022-08-01T06:23:32.801Z,1018.406067
2022-08-01T06:23:33.007Z,1018.406067
2022-08-01T06:24:29.503Z,1018.437805
2022-08-01T06:25:22.014Z,1018.508057
2022-08-01T06:26:23.990Z,1018.451416
2022-08-01T06:27:21.714Z,1018.435547
2022-08-01T06:27:22.536Z,1018.435547
2022-08-01T06:28:16.756Z,1018.486511
2022-08-01T06:29:11.399Z,1018.518188
2022-08-01T06:30:09.433Z,1018.499084
2022-08-01T06:31:11.841Z,1018.44104
2022-08-01T06:32:04.588Z,1018.499084
2022-08-01T06:33:05.269Z,1018.37085
2022-08-01T06:33:59.807Z,1018.417542
2022-08-01T06:34:59.864Z,1018.471924
2022-08-01T06:36:57.771Z,1018.440186
2022-08-01T06:37:50.014Z,1018.369873
2022-08-01T06:38:50.331Z,1018.475098
2022-08-01T06:39:51.265Z,1018.451416
2022-08-01T06:41:42.661Z,1018.395752
2022-08-01T06:42:24.724Z,1018.450928
2022-08-01T06:43:23.950Z,1018.409363
2022-08-01T06:44:23.059Z,1018.428223
2022-08-01T06:45:24.140Z,1018.435059
2022-08-01T06:47:28.663Z,1018.40033
2022-08-01T06:48:22.824Z,1018.384521
2022-08-01T06:49:23.202Z,1018.40332
2022-08-01T06:50:25.400Z,1018.457642
2022-08-01T06:51:19.776Z,1018.41156
2022-08-01T06:52:21.607Z,1018.427551
2022-08-01T06:53:19.674Z,1018.384521
2022-08-01T06:54:23.528Z,1018.438904
2022-08-01T06:55:22.418Z,1018.438904
2022-08-01T06:57:20.252Z,1018.502319
2022-08-01T06:58:20.235Z,1018.412292
2022-08-01T06:58:30.861Z,1018.412292
2022-08-01T06:58:30.872Z,1018.412292
2022-08-01T06:59:22.718Z,1018.436523
2022-08-01T07:00:19.889Z,1018.453064
2022-08-01T07:01:20.815Z,1018.454102
2022-08-01T07:02:18.094Z,1018.415466
2022-08-01T07:03:19.717Z,1018.412292
2022-08-01T07:04:16.219Z,1018.400818
2022-08-01T07:05:20.262Z,1018.435974
2022-08-01T07:07:16.920Z,1018.394958
2022-08-01T07:08:13.649Z,1018.271057
2022-08-01T07:09:15.871Z,1018.311157
2022-08-01T07:10:12.871Z,1018.284668
2022-08-01T07:12:12.553Z,1018.293518
2022-08-01T07:13:15.344Z,1018.291199
2022-08-01T07:14:12.590Z,1018.277649
2022-08-01T07:15:14.454Z,1018.298096
2022-08-01T07:17:12.645Z,1018.283813
2022-08-01T07:18:13.007Z,1018.264893
2022-08-01T07:19:11.356Z,1018.288269
2022-08-01T07:20:16.181Z,1018.246643
2022-08-01T07:21:38.261Z,1018.294189
2022-08-01T07:21:39.376Z,1018.294189
2022-08-01T07:21:39.877Z,1018.294189
2022-08-01T07:22:13.064Z,1018.238037
2022-08-01T07:22:23.541Z,1018.238037
2022-08-01T07:23:13.424Z,1018.295349
2022-08-01T07:24:13.904Z,1018.211731
2022-08-01T07:25:13.371Z,1018.337646
2022-08-01T07:26:10.811Z,1018.244568
2022-08-01T07:27:25.388Z,1018.275635
2022-08-01T07:27:25.617Z,1018.275635
2022-08-01T07:27:26.121Z,1018.275635
2022-08-01T07:29:24.783Z,1018.220154
2022-08-01T07:29:45.217Z,1018.217102
2022-08-01T07:30:46.525Z,1018.258728
2022-08-01T07:31:43.796Z,1018.181396
2022-08-01T07:32:44.739Z,1018.258728
2022-08-01T07:33:48.472Z,1018.258728
2022-08-01T07:33:48.873Z,1018.258728
2022-08-01T07:34:40.968Z,1018.262085
2022-08-01T07:35:36.753Z,1018.246216
2022-08-01T07:36:37.001Z,1018.257751
2022-08-01T07:37:45.555Z,1018.272644
2022-08-01T07:37:47.899Z,1018.272644
2022-08-01T07:37:48.992Z,1018.272644
2022-08-01T07:38:34.658Z,1018.272644
2022-08-01T07:39:33.028Z,1018.308777
2022-08-01T07:40:31.394Z,1018.293884
2022-08-01T07:41:45.556Z,1018.286804
2022-08-01T07:41:52.990Z,1018.286804
2022-08-01T07:42:05.371Z,1018.286804
2022-08-01T07:42:28.971Z,1018.346558
2022-08-01T07:43:25.238Z,1018.274963
2022-08-01T07:44:29.255Z,1018.283325
2022-08-01T07:45:22.039Z,1018.326355
2022-08-01T07:47:19.218Z,1018.338806
2022-08-01T07:48:20.315Z,1018.277344
2022-08-01T07:49:16.792Z,1018.332703
2022-08-01T07:50:15.547Z,1018.290039
2022-08-01T07:51:16.360Z,1018.371826
2022-08-01T07:52:12.596Z,1018.341553
2022-08-01T07:53:16.237Z,1018.318665
2022-08-01T07:54:09.703Z,1018.330444
2022-08-01T07:55:10.652Z,1018.237427
2022-08-01T07:57:07.467Z,1018.284851
2022-08-01T07:58:03.601Z,1018.296326
2022-08-01T07:59:06.570Z,1018.343262
2022-08-01T08:00:00.278Z,1018.331909
2022-08-01T08:01:57.779Z,1018.340149
2022-08-01T08:02:58.518Z,1018.376282
2022-08-01T08:03:54.809Z,1018.326111
2022-08-01T08:04:58.234Z,1018.354431
2022-08-01T08:05:59.639Z,1018.307617
2022-08-01T08:05:59.809Z,1018.307617
2022-08-01T08:07:49.558Z,1018.273743
2022-08-01T08:08:53.251Z,1018.309814
2022-08-01T08:09:50.960Z,1018.318665
2022-08-01T08:10:51.271Z,1018.341492
2022-08-01T08:11:47.762Z,1018.326904
2022-08-01T08:12:45.804Z,1018.331421
2022-08-01T08:13:42.221Z,1018.296448
2022-08-01T08:14:46.245Z,1018.371338
2022-08-01T08:15:40.061Z,1018.367798
2022-08-01T08:17:38.196Z,1018.310913
2022-08-01T08:19:17.247Z,1018.355103
2022-08-01T08:20:12.549Z,1018.363708
2022-08-01T08:21:12.562Z,1018.395447
2022-08-01T08:22:52.522Z,1018.404236
2022-08-01T08:25:31.697Z,1018.348511
2022-08-01T08:25:52.031Z,1018.415283
2022-08-01T08:27:48.742Z,1018.395508
2022-08-01T08:28:49.056Z,1018.379272
2022-08-01T08:29:44.806Z,1018.386353
2022-08-01T08:30:47.330Z,1018.358459
2022-08-01T08:31:51.962Z,1018.463928
2022-08-01T08:31:52.021Z,1018.463928
2022-08-01T08:32:41.318Z,1018.405823
2022-08-01T08:33:37.016Z,1018.438171
2022-08-01T08:34:37.629Z,1018.438721
2022-08-01T08:35:40.354Z,1018.388
2022-08-01T08:35:40.495Z,1018.388
2022-08-01T08:35:54.159Z,1018.388
2022-08-01T08:36:31.804Z,1018.372498
2022-08-01T08:37:31.985Z,1018.3927
2022-08-01T08:37:37.880Z,1018.3927
2022-08-01T08:38:28.475Z,1018.419983
2022-08-01T08:39:27.418Z,1018.428406
2022-08-01T08:40:22.232Z,1018.490051
2022-08-01T08:42:16.772Z,1018.557251
2022-08-01T08:43:15.966Z,1018.536377
2022-08-01T08:44:17.271Z,1018.534668
2022-08-01T08:45:11.832Z,1018.541321
2022-08-01T08:47:04.006Z,1018.601929
2022-08-01T08:48:05.366Z,1018.562195
2022-08-01T08:48:57.876Z,1018.671326
2022-08-01T08:50:00.542Z,1018.613342
2022-08-01T08:50:53.182Z,1018.56311
2022-08-01T08:52:48.396Z,1018.625549
2022-08-01T08:53:47.539Z,1018.707397
2022-08-01T08:54:42.913Z,1018.660889
2022-08-01T08:55:55.380Z,1018.640625
2022-08-01T08:55:55.608Z,1018.640625
2022-08-01T08:55:56.473Z,1018.640625
2022-08-01T08:56:41.148Z,1018.621155
2022-08-01T08:57:36.393Z,1018.660889
2022-08-01T08:58:34.662Z,1018.672302
2022-08-01T08:59:33.486Z,1018.644043
2022-08-01T09:00:30.054Z,1018.678406
2022-08-01T09:01:27.552Z,1018.689087
2022-08-01T09:02:28.282Z,1018.668335
2022-08-01T09:03:22.443Z,1018.74054
2022-08-01T09:04:19.992Z,1018.63501
2022-08-01T09:05:21.736Z,1018.672852
2022-08-01T09:06:13.752Z,1018.700073
2022-08-01T09:07:15.394Z,1018.633118
2022-08-01T09:08:07.861Z,1018.63678
2022-08-01T09:09:07.631Z,1018.742188
2022-08-01T09:10:03.068Z,1018.661438
2022-08-01T09:11:57.087Z,1018.733032
2022-08-01T09:11:57.230Z,1018.733032
2022-08-01T09:11:58.229Z,1018.733032
2022-08-01T09:12:27.929Z,1018.770386
2022-08-01T09:13:26.952Z,1018.729553
2022-08-01T09:14:23.435Z,1018.667908
2022-08-01T09:15:23.498Z,1018.683777
2022-08-01T09:16:19.780Z,1018.601013
2022-08-01T09:17:22.655Z,1018.639648
2022-08-01T09:18:15.609Z,1018.624756
2022-08-01T09:19:38.804Z,1018.699585
2022-08-01T09:19:39.500Z,1018.699585
2022-08-01T09:19:40.603Z,1018.699585
2022-08-01T09:20:14.615Z,1018.70874
2022-08-01T09:22:10.744Z,1018.686584
2022-08-01T09:23:05.928Z,1018.768799
2022-08-01T09:24:05.727Z,1018.800049
2022-08-01T09:25:00.872Z,1018.768433
2022-08-01T09:26:00.296Z,1018.794312
2022-08-01T09:27:55.086Z,1018.782532
2022-08-01T09:28:50.213Z,1018.802002
2022-08-01T09:30:00.413Z,1018.821228
2022-08-01T09:30:01.954Z,1018.821228
2022-08-01T09:30:50.490Z,1018.814209
2022-08-01T09:31:47.609Z,1018.811462
2022-08-01T09:32:48.938Z,1018.781555
2022-08-01T09:33:42.137Z,1018.797302
2022-08-01T09:34:39.770Z,1018.828979
2022-08-01T09:35:43.140Z,1018.770508
2022-08-01T09:37:37.324Z,1018.840942
2022-08-01T09:38:36.170Z,1018.845337
2022-08-01T09:39:28.689Z,1018.83728
2022-08-01T09:40:07.578Z,1018.832947
2022-08-01T09:41:02.633Z,1018.852417
2022-08-01T09:43:01.400Z,1018.880432
2022-08-01T09:43:56.281Z,1018.841614
2022-08-01T09:45:23.268Z,1018.890076
2022-08-01T09:46:00.973Z,1018.851318
2022-08-01T09:47:59.770Z,1018.833496
2022-08-01T09:48:56.056Z,1018.852478
2022-08-01T09:49:57.317Z,1018.888184
2022-08-01T09:50:53.510Z,1018.915405
2022-08-01T09:51:59.932Z,1018.908325
2022-08-01T09:52:00.860Z,1018.908325
2022-08-01T09:52:52.656Z,1018.831116
2022-08-01T09:53:52.178Z,1018.897888
2022-08-01T09:54:49.630Z,1018.906555
2022-08-01T09:55:45.848Z,1018.941956
2022-08-01T09:56:43.953Z,1018.856323
2022-08-01T09:57:44.789Z,1018.880188
2022-08-01T09:58:40.950Z,1018.887939
2022-08-01T09:59:57.267Z,1018.833557
2022-08-01T09:59:57.968Z,1018.833557
2022-08-01T09:59:58.731Z,1018.833557
2022-08-01T10:00:45.674Z,1018.861145
2022-08-01T10:00:46.005Z,1018.861145
2022-08-01T10:02:34.869Z,1018.948486
2022-08-01T10:03:35.326Z,1018.897156
2022-08-01T10:04:30.791Z,1018.865417
2022-08-01T10:05:36.841Z,1018.888489
2022-08-01T10:07:43.256Z,1018.848572
2022-08-01T10:07:44.105Z,1018.848572
2022-08-01T10:07:44.970Z,1018.848572
2022-08-01T10:08:27.240Z,1018.895142
2022-08-01T10:09:22.824Z,1018.880188
2022-08-01T10:10:23.469Z,1018.876587
2022-08-01T10:10:29.032Z,1018.876587
2022-08-01T10:12:17.614Z,1018.911072
2022-08-01T10:13:20.611Z,1018.856445
2022-08-01T10:14:14.261Z,1018.824768
2022-08-01T10:15:14.621Z,1018.805542
2022-08-01T10:17:10.657Z,1018.860168
2022-08-01T10:17:18.156Z,1018.860168
2022-08-01T10:18:06.755Z,1018.844299
2022-08-01T10:18:16.830Z,1018.844299
2022-08-01T10:18:26.495Z,1018.844299
2022-08-01T10:19:14.492Z,1018.911926
2022-08-01T10:19:15.562Z,1018.911926
2022-08-01T10:20:13.030Z,1018.865417
2022-08-01T10:20:29.024Z,1018.865417
2022-08-01T10:20:32.762Z,1018.865417
2022-08-01T10:21:10.979Z,1018.940308
2022-08-01T10:23:00.333Z,1018.851257
2022-08-01T10:24:03.118Z,1018.885742
2022-08-01T10:24:56.029Z,1018.892456
2022-08-01T10:25:56.020Z,1018.898865
2022-08-01T10:27:55.156Z,1018.935669
2022-08-01T10:28:49.585Z,1018.938354
2022-08-01T10:29:59.130Z,1018.995667
2022-08-01T10:30:04.545Z,1018.995667
2022-08-01T10:30:08.518Z,1018.995667
2022-08-01T10:30:47.154Z,1018.933228
2022-08-01T10:32:43.889Z,1018.961243
2022-08-01T10:32:50.708Z,1018.961243
2022-08-01T10:33:50.875Z,1018.949829
2022-08-01T10:33:51.898Z,1018.949829
2022-08-01T10:34:45.049Z,1018.950195
2022-08-01T10:35:47.651Z,1018.974854
2022-08-01T10:35:47.943Z,1018.974854
2022-08-01T10:37:35.181Z,1018.91748
2022-08-01T10:38:35.274Z,1018.97644
2022-08-01T10:39:31.010Z,1018.921875
2022-08-01T10:40:31.911Z,1018.925293
2022-08-01T10:43:04.974Z,1018.951782
2022-08-01T10:45:02.905Z,1018.868225
2022-08-01T10:45:22.835Z,1018.870056
2022-08-01T10:46:20.068Z,1018.847717
2022-08-01T10:47:23.281Z,1018.848389